Time;durP1;ratioP1;P1;durP2;ratioP2;P2;SDS_P1;SDS_P2;PMS_P1;PMS_P2;Temp;Humidity;BMP_temperature;BMP_pressure;BME280_temperature;BME280_humidity;BME280_pressure;Samples;Min_cycle;Max_cycle;Signal;HPM_P1;HPM_P2
2023/03/11 00:00:39;;;;;;;1999.90;999.90;;;1.30;99.90;;;;;;5094725;28;20436;-67
2023/03/11 00:03:09;;;;;;;1999.90;999.90;;;1.30;99.90;;;;;;5101962;28;20495;-68
2023/03/11 00:05:37;;;;;;;1999.90;999.90;;;1.20;99.90;;;;;;5101939;28;20432;-69
2023/03/11 00:08:05;;;;;;;1999.90;999.90;;;1.20;99.90;;;;;;5102435;28;20417;-71
2023/03/11 00:10:34;;;;;;;1999.90;999.90;;;1.20;99.90;;;;;;5102212;28;20436;-69
2023/03/11 00:13:01;;;;;;;1999.90;999.90;;;1.20;99.90;;;;;;5101991;28;20421;-68
2023/03/11 00:15:29;;;;;;;1999.90;999.90;;;1.20;99.90;;;;;;5095379;28;20431;-70
2023/03/11 00:17:56;;;;;;;1999.90;999.90;;;1.20;99.90;;;;;;5087799;28;20539;-67
2023/03/11 00:20:26;;;;;;;1999.90;999.90;;;1.20;99.90;;;;;;5096373;28;20481;-68
2023/03/11 00:22:53;;;;;;;1999.90;999.90;;;1.20;99.90;;;;;;5099906;28;20931;-68
2023/03/11 00:25:22;;;;;;;1999.90;999.90;;;1.20;99.90;;;;;;5124320;22;20491;-70
2023/03/11 00:27:49;;;;;;;1999.90;999.90;;;1.10;99.90;;;;;;5098012;28;20430;-70
2023/03/11 00:30:17;;;;;;;1999.90;999.90;;;1.10;99.90;;;;;;5102217;28;20432;-70
2023/03/11 00:32:44;;;;;;;1999.90;999.90;;;1.10;99.90;;;;;;5098852;28;20479;-70
2023/03/11 00:35:13;;;;;;;1999.90;999.90;;;1.10;99.90;;;;;;5084365;28;20488;-70
2023/03/11 00:37:41;;;;;;;1999.90;999.90;;;1.20;99.90;;;;;;5077447;28;20481;-72
2023/03/11 00:40:12;;;;;;;1999.90;999.90;;;1.20;99.90;;;;;;5080536;28;20942;-74
2023/03/11 00:42:39;;;;;;;1999.90;999.90;;;1.20;99.90;;;;;;5084583;28;20429;-75
2023/03/11 00:45:06;;;;;;;1999.90;999.90;;;1.40;99.90;;;;;;5082596;28;20500;-75
2023/03/11 00:47:33;;;;;;;1999.90;999.90;;;1.10;99.90;;;;;;5083878;28;20418;-69
2023/03/11 00:50:00;;;;;;;1999.90;999.90;;;1.10;99.90;;;;;;5078241;28;20792;-70
2023/03/11 00:52:27;;;;;;;1999.90;999.90;;;1.10;99.90;;;;;;5077285;28;20432;-70
2023/03/11 00:54:55;;;;;;;1999.90;999.90;;;1.10;99.90;;;;;;5078024;28;20466;-70
2023/03/11 00:57:22;;;;;;;1999.90;999.90;;;1.10;99.90;;;;;;5087296;28;20422;-70
2023/03/11 00:59:49;;;;;;;1999.90;999.90;;;1.00;99.90;;;;;;5076899;28;20487;-71
2023/03/11 01:02:15;;;;;;;1999.90;999.90;;;1.10;99.90;;;;;;5078406;28;20437;-70
2023/03/11 01:04:42;;;;;;;1999.90;999.90;;;1.10;99.90;;;;;;5070682;28;20489;-70
2023/03/11 01:07:09;;;;;;;1999.90;999.90;;;1.10;99.90;;;;;;5073544;28;20416;-70
2023/03/11 01:09:35;;;;;;;1999.90;999.90;;;1.20;99.90;;;;;;5070774;28;20978;-71
2023/03/11 01:12:04;;;;;;;1999.90;999.90;;;1.10;99.90;;;;;;5082210;28;20436;-71
2023/03/11 01:14:30;;;;;;;1999.90;999.90;;;1.10;99.90;;;;;;5082061;28;20429;-70
2023/03/11 01:16:57;;;;;;;1999.90;999.90;;;1.20;99.90;;;;;;5082869;28;20431;-70
2023/03/11 01:19:23;;;;;;;1999.90;999.90;;;1.10;99.90;;;;;;5081129;28;20548;-72
2023/03/11 01:21:50;;;;;;;1999.90;999.90;;;1.50;99.90;;;;;;5076176;28;20489;-70
2023/03/11 01:24:17;;;;;;;1999.90;999.90;;;1.10;99.90;;;;;;5076046;28;20843;-70
2023/03/11 01:26:44;;;;;;;1999.90;999.90;;;1.10;99.90;;;;;;5076919;28;20908;-70
2023/03/11 01:29:12;;;;;;;1999.90;999.90;;;1.10;99.90;;;;;;5067971;28;20432;-70
2023/03/11 01:31:38;;;;;;;1999.90;999.90;;;1.10;99.90;;;;;;5068303;28;20435;-70
2023/03/11 01:34:05;;;;;;;1999.90;999.90;;;1.10;99.90;;;;;;5071963;28;20435;-74
2023/03/11 01:36:32;;;;;;;1999.90;999.90;;;1.20;99.90;;;;;;5070373;28;20424;-70
2023/03/11 01:38:58;;;;;;;1999.90;999.90;;;1.10;99.90;;;;;;5073548;28;20447;-70
2023/03/11 01:41:25;;;;;;;1999.90;999.90;;;1.10;99.90;;;;;;5073220;28;20437;-71
2023/03/11 01:43:54;;;;;;;1999.90;999.90;;;1.10;99.90;;;;;;5069569;28;20438;-71
2023/03/11 01:46:23;;;;;;;1999.90;999.90;;;1.10;99.90;;;;;;5069803;28;20526;-70
2023/03/11 01:48:51;;;;;;;1999.90;999.90;;;1.10;99.90;;;;;;5068217;28;20427;-71
2023/03/11 01:51:27;;;;;;;1999.90;999.90;;;1.10;99.90;;;;;;5064527;28;20468;-70
2023/03/11 01:53:55;;;;;;;1999.90;999.90;;;1.20;99.90;;;;;;5068495;28;20432;-70
2023/03/11 01:56:23;;;;;;;1999.90;999.90;;;1.10;99.90;;;;;;5069920;28;20431;-70
2023/03/11 01:58:53;;;;;;;1999.90;999.90;;;1.10;99.90;;;;;;5069230;28;20537;-71
2023/03/11 02:01:22;;;;;;;1999.90;999.90;;;1.30;99.90;;;;;;5074925;28;20435;-71
2023/03/11 02:03:49;;;;;;;1999.90;999.90;;;1.10;99.90;;;;;;5072181;28;20431;-70
2023/03/11 02:06:20;;;;;;;1999.90;999.90;;;1.20;99.90;;;;;;5068744;28;20502;-69
2023/03/11 02:08:48;;;;;;;1999.90;999.90;;;1.10;99.90;;;;;;5068098;28;20431;-69
2023/03/11 02:11:19;;;;;;;1999.90;999.90;;;1.10;99.90;;;;;;5074749;28;20454;-70
2023/03/11 02:13:46;;;;;;;1999.90;999.90;;;1.10;99.90;;;;;;5068468;28;20699;-69
2023/03/11 02:16:13;;;;;;;1999.90;999.90;;;1.10;99.90;;;;;;5068537;28;20436;-70
2023/03/11 02:18:43;;;;;;;1999.90;999.90;;;1.10;99.90;;;;;;5068444;28;20459;-67
2023/03/11 02:21:22;;;;;;;1999.90;999.90;;;1.10;99.90;;;;;;5068087;28;21631;-71
2023/03/11 02:23:57;;;;;;;1999.90;999.90;;;1.10;99.90;;;;;;5069656;28;20427;-68
2023/03/11 02:26:30;;;;;;;1999.90;999.90;;;1.30;99.90;;;;;;5067844;28;20431;-72
2023/03/11 02:29:00;;;;;;;1999.90;999.90;;;1.10;99.90;;;;;;5067481;28;20428;-72
2023/03/11 02:31:28;;;;;;;1999.90;999.90;;;1.10;99.90;;;;;;5063578;28;20427;-72
2023/03/11 02:33:56;;;;;;;1999.90;999.90;;;1.10;99.90;;;;;;5069132;28;20435;-71
2023/03/11 02:36:34;;;;;;;1999.90;999.90;;;1.10;99.90;;;;;;5062932;28;20428;-72
2023/03/11 02:39:00;;;;;;;1999.90;999.90;;;1.10;99.90;;;;;;5072683;28;20429;-72
2023/03/11 02:41:28;;;;;;;1999.90;999.90;;;1.10;99.90;;;;;;5068132;28;20431;-71
2023/03/11 02:43:55;;;;;;;1999.90;999.90;;;1.40;99.90;;;;;;5067372;28;20431;-70
2023/03/11 02:46:24;;;;;;;1999.90;999.90;;;1.00;99.90;;;;;;5063533;28;20432;-68
2023/03/11 02:48:52;;;;;;;1999.90;999.90;;;1.00;99.90;;;;;;5069277;28;20848;-70
2023/03/11 02:51:18;;;;;;;1999.90;999.90;;;1.00;99.90;;;;;;5076089;28;20485;-69
2023/03/11 02:53:49;;;;;;;1999.90;999.90;;;0.90;99.90;;;;;;5068389;28;20446;-69
2023/03/11 02:56:15;;;;;;;1999.90;999.90;;;0.90;99.90;;;;;;5074392;28;20489;-69
2023/03/11 02:58:42;;;;;;;1999.90;999.90;;;0.90;99.90;;;;;;5069247;28;20427;-69
2023/03/11 03:01:09;;;;;;;1999.90;999.90;;;0.90;99.90;;;;;;5072018;28;20416;-69
2023/03/11 03:03:37;;;;;;;1999.90;999.90;;;0.90;99.90;;;;;;5067954;28;20510;-69
2023/03/11 03:06:04;;;;;;;1999.90;999.90;;;1.00;99.90;;;;;;5067928;28;20474;-74
2023/03/11 03:08:31;;;;;;;1999.90;999.90;;;1.00;99.90;;;;;;5073437;28;20437;-71
2023/03/11 03:11:00;;;;;;;1999.90;999.90;;;1.00;99.90;;;;;;5069075;28;20488;-68
2023/03/11 03:13:26;;;;;;;1999.90;999.90;;;1.00;99.90;;;;;;5073589;28;20519;-69
2023/03/11 03:15:53;;;;;;;1999.90;999.90;;;1.00;99.90;;;;;;5067754;28;20485;-68
2023/03/11 03:18:20;;;;;;;1999.90;999.90;;;1.00;99.90;;;;;;5073938;28;20450;-69
2023/03/11 03:20:48;;;;;;;1999.90;999.90;;;1.00;99.90;;;;;;5069245;28;20497;-70
2023/03/11 03:23:15;;;;;;;1999.90;999.90;;;1.00;99.90;;;;;;5068467;28;20446;-69
2023/03/11 03:25:42;;;;;;;1999.90;999.90;;;1.00;99.90;;;;;;5066421;28;21002;-69
2023/03/11 03:28:10;;;;;;;1999.90;999.90;;;1.20;99.90;;;;;;5069213;28;20427;-69
2023/03/11 03:30:37;;;;;;;1999.90;999.90;;;1.00;99.90;;;;;;5072079;28;20449;-69
2023/03/11 03:33:04;;;;;;;1999.90;999.90;;;1.00;99.90;;;;;;5067676;28;20831;-69
2023/03/11 03:35:30;;;;;;;1999.90;999.90;;;1.00;99.90;;;;;;5072600;28;20506;-69
2023/03/11 03:37:58;;;;;;;1999.90;999.90;;;1.00;99.90;;;;;;5068516;28;20568;-69
2023/03/11 03:40:25;;;;;;;1999.90;999.90;;;1.00;99.90;;;;;;5074980;28;20423;-69
2023/03/11 03:42:52;;;;;;;1999.90;999.90;;;1.30;99.90;;;;;;5072333;28;20678;-69
2023/03/11 03:45:19;;;;;;;1999.90;999.90;;;0.90;99.90;;;;;;5071020;28;20482;-69
2023/03/11 03:47:46;;;;;;;1999.90;999.90;;;0.90;99.90;;;;;;5068582;28;20489;-70
2023/03/11 03:50:13;;;;;;;1999.90;999.90;;;0.90;99.90;;;;;;5067363;28;20431;-69
2023/03/11 03:52:39;;;;;;;1999.90;999.90;;;0.90;99.90;;;;;;5068424;28;20438;-69
2023/03/11 03:55:08;;;;;;;1999.90;999.90;;;1.00;99.90;;;;;;5070854;28;20502;-69
2023/03/11 03:57:35;;;;;;;1999.90;999.90;;;1.00;99.90;;;;;;5072015;28;20434;-69
2023/03/11 04:00:03;;;;;;;1999.90;999.90;;;0.90;99.90;;;;;;5070789;28;20435;-70
2023/03/11 04:02:30;;;;;;;1999.90;999.90;;;0.90;99.90;;;;;;5071491;28;20427;-70
2023/03/11 04:04:57;;;;;;;1999.90;999.90;;;1.00;99.90;;;;;;5076637;28;20939;-69
2023/03/11 04:07:23;;;;;;;1999.90;999.90;;;1.00;99.90;;;;;;5070929;28;20505;-70
2023/03/11 04:09:50;;;;;;;1999.90;999.90;;;1.00;99.90;;;;;;5070603;28;20489;-69
2023/03/11 04:12:18;;;;;;;1999.90;999.90;;;1.00;99.90;;;;;;5070210;28;20439;-69
2023/03/11 04:14:45;;;;;;;1999.90;999.90;;;1.40;99.90;;;;;;5075805;28;20497;-69
2023/03/11 04:17:12;;;;;;;1999.90;999.90;;;1.30;99.90;;;;;;5070999;28;20502;-70
2023/03/11 04:19:39;;;;;;;1999.90;999.90;;;1.00;99.90;;;;;;5071879;28;20974;-70
2023/03/11 04:22:06;;;;;;;1999.90;999.90;;;0.90;99.90;;;;;;5069498;28;20428;-69
2023/03/11 04:24:33;;;;;;;1999.90;999.90;;;1.00;99.90;;;;;;5070642;28;20436;-70
2023/03/11 04:26:59;;;;;;;1999.90;999.90;;;1.00;99.90;;;;;;5070543;28;21005;-69
2023/03/11 04:29:27;;;;;;;1999.90;999.90;;;1.30;99.90;;;;;;5065621;28;20434;-69
2023/03/11 04:31:54;;;;;;;1999.90;999.90;;;1.00;99.90;;;;;;5071042;28;20831;-69
2023/03/11 04:34:21;;;;;;;1999.90;999.90;;;1.30;99.90;;;;;;5070586;28;20555;-69
2023/03/11 04:36:47;;;;;;;1999.90;999.90;;;0.90;99.90;;;;;;5077515;28;20426;-68
2023/03/11 04:39:15;;;;;;;1999.90;999.90;;;0.90;99.90;;;;;;5070659;28;20435;-74
2023/03/11 04:41:42;;;;;;;1999.90;999.90;;;1.30;99.90;;;;;;5072296;28;20423;-70
2023/03/11 04:44:08;;;;;;;1999.90;999.90;;;0.90;99.90;;;;;;5069968;28;20460;-70
2023/03/11 04:46:36;;;;;;;1999.90;999.90;;;1.00;99.90;;;;;;5071520;28;20431;-68
2023/03/11 04:49:03;;;;;;;1999.90;999.90;;;0.90;99.90;;;;;;5075716;28;20906;-69
2023/03/11 04:51:30;;;;;;;1999.90;999.90;;;1.10;99.90;;;;;;5085481;28;20479;-69
2023/03/11 04:53:57;;;;;;;1999.90;999.90;;;0.90;99.90;;;;;;5071655;28;20429;-69
2023/03/11 04:56:23;;;;;;;1999.90;999.90;;;1.20;99.90;;;;;;5078085;28;20426;-69
2023/03/11 04:58:50;;;;;;;1999.90;999.90;;;0.90;99.90;;;;;;5077176;28;20429;-69
2023/03/11 05:01:17;;;;;;;1999.90;999.90;;;0.90;99.90;;;;;;5081017;28;20438;-70
2023/03/11 05:03:45;;;;;;;1999.90;999.90;;;0.90;99.90;;;;;;5071027;28;20482;-69
2023/03/11 05:06:12;;;;;;;1999.90;999.90;;;1.00;99.90;;;;;;5070665;28;20889;-69
2023/03/11 05:08:39;;;;;;;1999.90;999.90;;;0.90;99.90;;;;;;5072873;28;20412;-69
2023/03/11 05:11:06;;;;;;;1999.90;999.90;;;0.90;99.90;;;;;;5070605;28;20459;-69
2023/03/11 05:13:33;;;;;;;1999.90;999.90;;;1.30;99.90;;;;;;5069300;28;20455;-69
2023/03/11 05:15:59;;;;;;;1999.90;999.90;;;0.90;99.90;;;;;;5069289;28;20435;-69
2023/03/11 05:18:26;;;;;;;1999.90;999.90;;;0.90;99.90;;;;;;5076240;28;20431;-69
2023/03/11 05:20:54;;;;;;;1999.90;999.90;;;0.90;99.90;;;;;;5069757;28;20928;-70
2023/03/11 05:23:21;;;;;;;1999.90;999.90;;;0.90;99.90;;;;;;5074050;28;20434;-71
2023/03/11 05:25:47;;;;;;;1999.90;999.90;;;0.90;99.90;;;;;;5070134;28;20659;-70
2023/03/11 05:28:14;;;;;;;1999.90;999.90;;;0.90;99.90;;;;;;5069976;28;20516;-69
2023/03/11 05:30:41;;;;;;;1999.90;999.90;;;0.90;99.90;;;;;;5069960;28;20466;-69
2023/03/11 05:33:07;;;;;;;1999.90;999.90;;;0.90;99.90;;;;;;5067804;28;20493;-69
2023/03/11 05:35:34;;;;;;;1999.90;999.90;;;0.90;99.90;;;;;;5074776;28;20489;-69
2023/03/11 05:38:02;;;;;;;1999.90;999.90;;;0.90;99.90;;;;;;5070351;28;20560;-70
2023/03/11 05:40:28;;;;;;;1999.90;999.90;;;0.80;99.90;;;;;;5076169;28;20909;-69
2023/03/11 05:42:55;;;;;;;1999.90;999.90;;;0.80;99.90;;;;;;5069496;28;20432;-69
2023/03/11 05:45:22;;;;;;;1999.90;999.90;;;0.80;99.90;;;;;;5069427;28;20916;-69
2023/03/11 05:47:48;;;;;;;1999.90;999.90;;;0.80;99.90;;;;;;5069910;28;20477;-69
2023/03/11 05:50:15;;;;;;;1999.90;999.90;;;0.70;99.90;;;;;;5069404;28;20481;-69
2023/03/11 05:52:42;;;;;;;1999.90;999.90;;;0.70;99.90;;;;;;5069049;28;20508;-70
2023/03/11 05:55:11;;;;;;;1999.90;999.90;;;0.80;99.90;;;;;;5068616;28;20481;-69
2023/03/11 05:57:38;;;;;;;1999.90;999.90;;;1.20;99.90;;;;;;5070493;28;20466;-70
2023/03/11 06:00:10;;;;;;;1999.90;999.90;;;0.80;99.90;;;;;;5068512;28;20988;-69
2023/03/11 06:02:37;;;;;;;1999.90;999.90;;;0.80;99.90;;;;;;5063717;28;20458;-69
2023/03/11 06:05:04;;;;;;;1999.90;999.90;;;1.00;99.90;;;;;;5068082;28;20488;-69
2023/03/11 06:07:31;;;;;;;1999.90;999.90;;;0.80;99.90;;;;;;5066071;28;20842;-69
2023/03/11 06:09:58;;;;;;;1999.90;999.90;;;1.20;99.90;;;;;;5070905;28;20427;-69
2023/03/11 06:12:26;;;;;;;1999.90;999.90;;;0.80;99.90;;;;;;5066268;28;20975;-70
2023/03/11 06:14:53;;;;;;;1999.90;999.90;;;0.90;99.90;;;;;;5070265;28;20821;-69
2023/03/11 06:17:20;;;;;;;1999.90;999.90;;;0.80;99.90;;;;;;5070479;28;20489;-69
2023/03/11 06:19:47;;;;;;;1999.90;999.90;;;1.20;99.90;;;;;;5070156;28;20920;-72
2023/03/11 06:22:13;;;;;;;1999.90;999.90;;;0.80;99.90;;;;;;5070605;28;20473;-69
2023/03/11 06:24:40;;;;;;;1999.90;999.90;;;0.80;99.90;;;;;;5074195;28;20430;-70
2023/03/11 06:27:08;;;;;;;1999.90;999.90;;;0.90;99.90;;;;;;5067578;28;20432;-69
2023/03/11 06:29:36;;;;;;;1999.90;999.90;;;1.00;99.90;;;;;;5109328;22;20434;-69
2023/03/11 06:32:02;;;;;;;1999.90;999.90;;;1.00;99.90;;;;;;5107998;28;20424;-68
2023/03/11 06:34:29;;;;;;;1999.90;999.90;;;1.00;99.90;;;;;;5113865;27;20476;-69
2023/03/11 06:36:56;;;;;;;1999.90;999.90;;;1.00;99.90;;;;;;5112742;27;20426;-66
2023/03/11 06:39:22;;;;;;;1999.90;999.90;;;1.00;99.90;;;;;;5102659;28;21016;-69
2023/03/11 06:41:49;;;;;;;1999.90;999.90;;;1.00;99.90;;;;;;5102503;28;20462;-67
2023/03/11 06:44:15;;;;;;;1999.90;999.90;;;1.00;99.90;;;;;;5107081;27;20486;-66
2023/03/11 06:46:43;;;;;;;1999.90;999.90;;;1.10;99.90;;;;;;5113723;27;20473;-64
2023/03/11 06:49:10;;;;;;;1999.90;999.90;;;1.20;99.90;;;;;;5110595;27;20422;-68
2023/03/11 06:51:37;;;;;;;1999.90;999.90;;;1.10;99.90;;;;;;5108654;28;20431;-68
2023/03/11 06:54:04;;;;;;;1999.90;999.90;;;1.40;99.90;;;;;;5107761;28;20512;-67
2023/03/11 06:56:30;;;;;;;1999.90;999.90;;;1.30;99.90;;;;;;5103395;28;20427;-69
2023/03/11 06:58:57;;;;;;;1999.90;999.90;;;1.30;99.90;;;;;;5106287;28;20432;-69
2023/03/11 07:01:26;;;;;;;1999.90;999.90;;;1.30;99.90;;;;;;5119124;28;20835;-69
2023/03/11 07:03:54;;;;;;;1999.90;999.90;;;1.30;99.90;;;;;;5108228;28;20424;-68
2023/03/11 07:06:22;;;;;;;1999.90;999.90;;;1.30;99.90;;;;;;5107983;28;20928;-68
2023/03/11 07:08:50;;;;;;;1999.90;999.90;;;1.20;99.90;;;;;;5109169;28;20423;-68
2023/03/11 07:11:19;;;;;;;1999.90;999.90;;;1.50;99.90;;;;;;5110376;28;20544;-67
2023/03/11 07:13:46;;;;;;;1999.90;999.90;;;1.00;99.90;;;;;;5105934;28;20465;-66
2023/03/11 07:16:15;;;;;;;1999.90;999.90;;;1.10;99.90;;;;;;5107316;28;20496;-68
2023/03/11 07:18:43;;;;;;;1999.90;999.90;;;1.10;99.90;;;;;;5106732;28;20428;-68
2023/03/11 07:21:13;;;;;;;1999.90;999.90;;;1.10;99.90;;;;;;5105003;28;20473;-68
2023/03/11 07:23:39;;;;;;;1999.90;999.90;;;1.20;99.90;;;;;;5109814;28;20427;-69
2023/03/11 07:26:08;;;;;;;1999.90;999.90;;;1.20;99.90;;;;;;5109556;28;20908;-67
2023/03/11 07:28:35;;;;;;;1999.90;999.90;;;1.30;99.90;;;;;;5119539;27;20428;-65
2023/03/11 07:31:06;;;;;;;1999.90;999.90;;;1.30;99.90;;;;;;5111701;28;20419;-69
2023/03/11 07:33:33;;;;;;;1999.90;999.90;;;1.40;99.90;;;;;;5114670;27;20428;-68
2023/03/11 07:36:05;;;;;;;1999.90;999.90;;;1.40;99.90;;;;;;5116574;27;20426;-67
2023/03/11 07:38:33;;;;;;;1999.90;999.90;;;1.40;99.90;;;;;;5111490;28;20432;-70
2023/03/11 07:41:00;;;;;;;1999.90;999.90;;;1.40;99.90;;;;;;5110218;28;20466;-68
2023/03/11 07:43:27;;;;;;;1999.90;999.90;;;1.40;99.90;;;;;;5112051;28;20497;-69
2023/03/11 07:46:02;;;;;;;1999.90;999.90;;;1.40;99.90;;;;;;5113583;27;20434;-69
2023/03/11 07:48:29;;;;;;;1999.90;999.90;;;1.50;99.90;;;;;;5111450;28;20505;-67
2023/03/11 07:51:00;;;;;;;1999.90;999.90;;;1.40;99.90;;;;;;5116849;27;20423;-68
2023/03/11 07:53:27;;;;;;;1999.90;999.90;;;1.50;99.90;;;;;;5110084;28;20425;-68
2023/03/11 07:55:57;;;;;;;1999.90;999.90;;;1.40;99.90;;;;;;5110293;28;20966;-68
2023/03/11 07:58:23;;;;;;;1999.90;999.90;;;1.50;99.90;;;;;;5111497;27;20424;-68
2023/03/11 08:00:50;;;;;;;1999.90;999.90;;;1.80;99.90;;;;;;5116259;27;20424;-68
2023/03/11 08:03:17;;;;;;;1999.90;999.90;;;1.50;99.90;;;;;;5115291;27;20533;-67
2023/03/11 08:05:44;;;;;;;1999.90;999.90;;;1.40;99.90;;;;;;5110894;28;20424;-68
2023/03/11 08:08:10;;;;;;;1999.90;999.90;;;1.50;99.90;;;;;;5109872;27;20431;-68
2023/03/11 08:10:37;;;;;;;1999.90;999.90;;;1.50;99.90;;;;;;5112981;27;20428;-66
2023/03/11 08:13:05;;;;;;;1999.90;999.90;;;1.40;99.90;;;;;;5108149;28;20476;-70
2023/03/11 08:15:32;;;;;;;1999.90;999.90;;;1.50;99.90;;;;;;5111898;28;20461;-69
2023/03/11 08:17:59;;;;;;;1999.90;999.90;;;1.50;99.90;;;;;;5111904;28;20424;-67
2023/03/11 08:20:26;;;;;;;1999.90;999.90;;;1.50;99.90;;;;;;5111975;27;20424;-66
2023/03/11 08:22:52;;;;;;;1999.90;999.90;;;1.60;99.90;;;;;;5113214;27;20432;-64
2023/03/11 08:25:19;;;;;;;1999.90;999.90;;;1.60;99.90;;;;;;5117566;27;20440;-65
2023/03/11 08:27:46;;;;;;;1999.90;999.90;;;1.70;99.90;;;;;;5112305;27;20466;-65
2023/03/11 08:30:15;;;;;;;1999.90;999.90;;;1.70;99.90;;;;;;5110797;27;20424;-65
2023/03/11 08:32:41;;;;;;;1999.90;999.90;;;1.70;99.90;;;;;;5105044;28;20428;-67
2023/03/11 08:35:09;;;;;;;1999.90;999.90;;;1.70;99.90;;;;;;5115463;27;20911;-66
2023/03/11 08:37:35;;;;;;;1999.90;999.90;;;1.70;99.90;;;;;;5110873;28;20420;-66
2023/03/11 08:40:02;;;;;;;1999.90;999.90;;;1.60;99.90;;;;;;5108708;28;21584;-66
2023/03/11 08:42:29;;;;;;;1999.90;999.90;;;1.60;99.90;;;;;;5110332;28;21176;-65
2023/03/11 08:44:56;;;;;;;1999.90;999.90;;;1.70;99.90;;;;;;5117074;27;20426;-68
2023/03/11 08:47:24;;;;;;;1999.90;999.90;;;1.70;99.90;;;;;;5103746;27;20430;-67
2023/03/11 08:49:50;;;;;;;1999.90;999.90;;;1.70;99.90;;;;;;5112501;28;20973;-67
2023/03/11 08:52:17;;;;;;;1999.90;999.90;;;1.70;99.90;;;;;;5115018;28;20922;-65
2023/03/11 08:54:44;;;;;;;1999.90;999.90;;;1.70;99.90;;;;;;5114231;28;20511;-67
2023/03/11 08:57:10;;;;;;;1999.90;999.90;;;1.60;99.90;;;;;;5113748;28;20408;-68
2023/03/11 08:59:37;;;;;;;1999.90;999.90;;;1.60;99.90;;;;;;5113126;28;20412;-66
2023/03/11 09:02:04;;;;;;;1999.90;999.90;;;1.60;99.90;;;;;;5112284;28;20512;-66
2023/03/11 09:04:32;;;;;;;1999.90;999.90;;;1.60;99.90;;;;;;5093652;28;20410;-67
2023/03/11 09:06:58;;;;;;;1999.90;999.90;;;1.60;99.90;;;;;;5092959;28;20414;-67
2023/03/11 09:09:25;;;;;;;1999.90;999.90;;;1.60;99.90;;;;;;5092685;28;20410;-67
2023/03/11 09:11:52;;;;;;;1999.90;999.90;;;1.70;99.90;;;;;;5107453;27;20421;-67
2023/03/11 09:14:18;;;;;;;1999.90;999.90;;;1.70;99.90;;;;;;5107042;27;20424;-65
2023/03/11 09:16:45;;;;;;;1999.90;999.90;;;1.80;99.90;;;;;;5110069;27;20650;-64
2023/03/11 09:19:12;;;;;;;1999.90;999.90;;;1.80;99.90;;;;;;5108500;27;20923;-67
2023/03/11 09:21:40;;;;;;;1999.90;999.90;;;1.90;99.90;;;;;;5104979;28;20515;-66
2023/03/11 09:24:07;;;;;;;1999.90;999.90;;;1.90;99.90;;;;;;5111919;27;20485;-67
2023/03/11 09:26:33;;;;;;;1999.90;999.90;;;1.90;99.90;;;;;;5114686;27;20997;-66
2023/03/11 09:29:00;;;;;;;1999.90;999.90;;;2.00;99.90;;;;;;5111673;27;20432;-69
2023/03/11 09:31:26;;;;;;;1999.90;999.90;;;2.00;99.90;;;;;;5100510;27;20940;-67
2023/03/11 09:33:55;;;;;;;1999.90;999.90;;;2.00;99.90;;;;;;5105697;28;20445;-65
2023/03/11 09:36:22;;;;;;;1999.90;999.90;;;2.00;99.90;;;;;;5110541;28;20411;-67
2023/03/11 09:38:50;;;;;;;1999.90;999.90;;;2.00;99.90;;;;;;5109621;28;20457;-69
2023/03/11 09:41:41;;;;;;;1999.90;999.90;;;2.00;99.90;;;;;;5109428;28;20424;-68
2023/03/11 09:44:19;;;;;;;1999.90;999.90;;;2.00;99.90;;;;;;5104585;28;20757;-67
2023/03/11 09:47:03;;;;;;;1999.90;999.90;;;2.00;99.90;;;;;;5101548;28;20459;-66
2023/03/11 09:49:39;;;;;;;1999.90;999.90;;;2.00;99.90;;;;;;5101282;28;20611;-68
2023/03/11 09:52:10;;;;;;;1999.90;999.90;;;2.10;99.90;;;;;;5091485;28;20463;-68
2023/03/11 09:54:41;;;;;;;1999.90;999.90;;;2.20;99.90;;;;;;5091689;28;20846;-67
2023/03/11 09:57:14;;;;;;;1999.90;999.90;;;2.10;99.90;;;;;;5096603;28;20482;-68
2023/03/11 09:59:42;;;;;;;1999.90;999.90;;;2.10;99.90;;;;;;5102610;28;20498;-67
2023/03/11 10:02:15;;;;;;;1999.90;999.90;;;2.10;99.90;;;;;;5112057;28;20533;-67
2023/03/11 10:04:45;;;;;;;1999.90;999.90;;;2.10;99.90;;;;;;5091718;28;20410;-67
2023/03/11 10:07:20;;;;;;;1999.90;999.90;;;2.10;99.90;;;;;;5104116;28;20481;-67
2023/03/11 10:09:51;;;;;;;1999.90;999.90;;;2.20;99.90;;;;;;5104582;28;20420;-67
2023/03/11 10:12:27;;;;;;;1999.90;999.90;;;2.20;99.90;;;;;;5112239;28;20457;-67
2023/03/11 10:15:08;;;;;;;1999.90;999.90;;;2.30;99.90;;;;;;5111663;28;20404;-68
2023/03/11 10:18:00;;;;;;;1999.90;999.90;;;2.30;99.90;;;;;;5108694;28;20434;-67
2023/03/11 10:20:33;;;;;;;1999.90;999.90;;;2.40;99.90;;;;;;5120903;28;20425;-67
2023/03/11 10:23:12;;;;;;;1999.90;999.90;;;2.50;99.90;;;;;;5123266;28;20914;-69
2023/03/11 10:25:49;;;;;;;1999.90;999.90;;;2.60;99.90;;;;;;5124081;28;20404;-67
2023/03/11 10:28:18;;;;;;;1999.90;999.90;;;2.60;99.90;;;;;;5116183;28;20465;-69
2023/03/11 10:30:47;;;;;;;1999.90;999.90;;;2.70;99.90;;;;;;5108058;28;20437;-70
2023/03/11 10:33:20;;;;;;;1999.90;999.90;;;2.70;99.90;;;;;;5102926;28;20402;-67
2023/03/11 10:35:51;;;;;;;1999.90;999.90;;;2.70;99.90;;;;;;5097814;28;20420;-68
2023/03/11 10:38:21;;;;;;;1999.90;999.90;;;2.80;99.90;;;;;;5106264;28;20420;-68
2023/03/11 10:40:51;;;;;;;1999.90;999.90;;;3.00;99.90;;;;;;5115311;28;20893;-67
2023/03/11 10:43:22;;;;;;;1999.90;999.90;;;3.10;99.90;;;;;;5114405;28;20964;-68
2023/03/11 10:45:50;;;;;;;1999.90;999.90;;;3.00;99.90;;;;;;5112755;28;20476;-67
2023/03/11 10:48:18;;;;;;;1999.90;999.90;;;3.00;99.90;;;;;;5100885;28;20410;-67
2023/03/11 10:50:50;;;;;;;1999.90;999.90;;;2.90;99.90;;;;;;5112643;28;20416;-67
2023/03/11 10:53:18;;;;;;;1999.90;999.90;;;3.00;99.90;;;;;;5111863;28;20876;-70
2023/03/11 10:55:47;;;;;;;1999.90;999.90;;;3.10;99.90;;;;;;5111567;28;20411;-67
2023/03/11 10:58:17;;;;;;;1999.90;999.90;;;3.20;99.90;;;;;;5107891;28;20424;-66
2023/03/11 11:00:44;;;;;;;1999.90;999.90;;;3.10;99.90;;;;;;5114405;28;20461;-67
2023/03/11 11:03:21;;;;;;;1999.90;999.90;;;3.00;99.90;;;;;;5114379;28;20427;-68
2023/03/11 11:05:59;;;;;;;1999.90;999.90;;;3.00;99.90;;;;;;5121844;27;20488;-65
2023/03/11 11:08:25;;;;;;;1999.90;999.90;;;2.80;99.90;;;;;;5116641;27;20875;-66
2023/03/11 11:10:54;;;;;;;1999.90;999.90;;;3.00;99.90;;;;;;5117609;27;20423;-68
2023/03/11 11:13:24;;;;;;;1999.90;999.90;;;3.10;99.90;;;;;;5117800;28;20451;-67
2023/03/11 11:15:57;;;;;;;1999.90;999.90;;;3.00;99.90;;;;;;5117919;28;20411;-71
2023/03/11 11:18:27;;;;;;;1999.90;999.90;;;3.00;99.90;;;;;;5106051;28;20891;-66
2023/03/11 11:20:59;;;;;;;1999.90;999.90;;;2.90;99.90;;;;;;5117565;28;20424;-66
2023/03/11 11:23:30;;;;;;;1999.90;999.90;;;3.00;99.90;;;;;;5117695;28;20412;-67
2023/03/11 11:25:58;;;;;;;1999.90;999.90;;;2.90;99.90;;;;;;5117065;28;20416;-68
2023/03/11 11:28:27;;;;;;;1999.90;999.90;;;2.90;99.90;;;;;;5122927;27;20475;-67
2023/03/11 11:30:56;;;;;;;1999.90;999.90;;;3.00;99.90;;;;;;5115676;28;20909;-67
2023/03/11 11:33:26;;;;;;;1999.90;999.90;;;3.00;99.90;;;;;;5116738;27;20797;-66
2023/03/11 11:35:55;;;;;;;1999.90;999.90;;;2.90;99.90;;;;;;5120310;27;20490;-67
2023/03/11 11:38:23;;;;;;;1999.90;999.90;;;2.90;99.90;;;;;;5111005;27;20513;-66
2023/03/11 11:40:51;;;;;;;1999.90;999.90;;;2.80;99.90;;;;;;5117335;27;20489;-68
2023/03/11 11:43:19;;;;;;;1999.90;999.90;;;2.80;99.90;;;;;;5119913;27;20430;-65
2023/03/11 11:45:53;;;;;;;1999.90;999.90;;;2.90;99.90;;;;;;5122870;27;20446;-66
2023/03/11 11:48:25;;;;;;;1999.90;999.90;;;3.00;99.90;;;;;;5114196;27;20479;-68
2023/03/11 11:50:54;;;;;;;1999.90;999.90;;;2.80;99.90;;;;;;5111443;28;20412;-66
2023/03/11 11:53:28;;;;;;;1999.90;999.90;;;2.80;99.90;;;;;;5115466;28;21034;-68
2023/03/11 11:55:55;;;;;;;1999.90;999.90;;;2.90;99.90;;;;;;5109773;28;20412;-67
2023/03/11 11:58:22;;;;;;;1999.90;999.90;;;2.80;99.90;;;;;;5117279;28;20505;-67
2023/03/11 12:01:00;;;;;;;1999.90;999.90;;;2.80;99.90;;;;;;5105030;28;20421;-68
2023/03/11 12:03:46;;;;;;;1999.90;999.90;;;3.00;99.90;;;;;;5113035;28;20434;-66
2023/03/11 12:06:21;;;;;;;1999.90;999.90;;;3.30;99.90;;;;;;5074928;28;20464;-67
2023/03/11 12:09:03;;;;;;;1999.90;999.90;;;3.60;99.90;;;;;;5109136;28;20403;-67
2023/03/11 12:11:37;;;;;;;1999.90;999.90;;;3.80;99.90;;;;;;5116349;27;20457;-71
2023/03/11 12:14:10;;;;;;;1999.90;999.90;;;4.00;99.90;;;;;;5113610;27;20426;-67